sensor_id;sensor_type;location;lat;lon;timestamp;temperature;humidity
50947;DHT22;36955;47.416;7.716;2022-09-01T00:01:18;15.20;99.90
50947;DHT22;36955;47.416;7.716;2022-09-01T00:04:05;15.20;99.90
50947;DHT22;36955;47.416;7.716;2022-09-01T00:06:52;15.20;99.90
50947;DHT22;36955;47.416;7.716;2022-09-01T00:09:39;15.10;99.90
50947;DHT22;36955;47.416;7.716;2022-09-01T00:12:27;15.20;99.90
50947;DHT22;36955;47.416;7.716;2022-09-01T00:15:13;15.30;99.90
50947;DHT22;36955;47.416;7.716;2022-09-01T00:18:00;15.30;99.90
50947;DHT22;36955;47.416;7.716;2022-09-01T00:20:46;15.30;99.90
50947;DHT22;36955;47.416;7.716;2022-09-01T00:23:32;15.30;99.90
50947;DHT22;36955;47.416;7.716;2022-09-01T00:26:19;15.30;99.90
50947;DHT22;36955;47.416;7.716;2022-09-01T00:29:06;15.20;99.90
50947;DHT22;36955;47.416;7.716;2022-09-01T00:31:52;15.10;99.90
50947;DHT22;36955;47.416;7.716;2022-09-01T00:34:39;15.00;99.90
50947;DHT22;36955;47.416;7.716;2022-09-01T00:37:25;15.00;99.90
50947;DHT22;36955;47.416;7.716;2022-09-01T00:40:13;15.00;99.90
50947;DHT22;36955;47.416;7.716;2022-09-01T00:43:00;15.00;99.90
50947;DHT22;36955;47.416;7.716;2022-09-01T00:45:46;15.00;99.90
50947;DHT22;36955;47.416;7.716;2022-09-01T00:48:32;15.00;99.90
50947;DHT22;36955;47.416;7.716;2022-09-01T00:51:19;14.90;99.90
50947;DHT22;36955;47.416;7.716;2022-09-01T00:54:08;14.90;99.90
50947;DHT22;36955;47.416;7.716;2022-09-01T00:56:56;14.90;99.90
50947;DHT22;36955;47.416;7.716;2022-09-01T00:59:49;14.80;99.90
50947;DHT22;36955;47.416;7.716;2022-09-01T01:02:39;14.90;99.90
50947;DHT22;36955;47.416;7.716;2022-09-01T01:05:31;14.90;99.90
50947;DHT22;36955;47.416;7.716;2022-09-01T01:08:21;14.90;99.90
50947;DHT22;36955;47.416;7.716;2022-09-01T01:11:12;14.80;99.90
50947;DHT22;36955;47.416;7.716;2022-09-01T01:14:02;14.80;99.90
50947;DHT22;36955;47.416;7.716;2022-09-01T01:16:49;14.70;99.90
50947;DHT22;36955;47.416;7.716;2022-09-01T01:19:46;14.70;99.90
50947;DHT22;36955;47.416;7.716;2022-09-01T01:26:08;14.70;99.90
50947;DHT22;36955;47.416;7.716;2022-09-01T01:28:55;14.70;99.90
50947;DHT22;36955;47.416;7.716;2022-09-01T01:31:41;14.70;99.90
50947;DHT22;36955;47.416;7.716;2022-09-01T01:34:27;14.70;99.90
50947;DHT22;36955;47.416;7.716;2022-09-01T01:37:14;14.70;99.90
50947;DHT22;36955;47.416;7.716;2022-09-01T01:40:01;14.60;99.90
50947;DHT22;36955;47.416;7.716;2022-09-01T01:42:51;14.60;99.90
50947;DHT22;36955;47.416;7.716;2022-09-01T01:45:38;14.50;99.90
50947;DHT22;36955;47.416;7.716;2022-09-01T01:48:24;14.60;99.90
50947;DHT22;36955;47.416;7.716;2022-09-01T01:51:11;14.60;99.90
50947;DHT22;36955;47.416;7.716;2022-09-01T01:53:58;14.50;99.90
50947;DHT22;36955;47.416;7.716;2022-09-01T01:56:45;14.50;99.90
50947;DHT22;36955;47.416;7.716;2022-09-01T01:59:31;14.50;99.90
50947;DHT22;36955;47.416;7.716;2022-09-01T02:02:17;14.50;99.90
50947;DHT22;36955;47.416;7.716;2022-09-01T02:05:04;14.60;99.90
50947;DHT22;36955;47.416;7.716;2022-09-01T02:07:57;14.60;99.90
50947;DHT22;36955;47.416;7.716;2022-09-01T02:10:45;14.60;99.90
50947;DHT22;36955;47.416;7.716;2022-09-01T02:13:32;14.60;99.90
50947;DHT22;36955;47.416;7.716;2022-09-01T02:16:19;14.60;99.90
50947;DHT22;36955;47.416;7.716;2022-09-01T02:19:07;14.70;99.90
50947;DHT22;36955;47.416;7.716;2022-09-01T02:21:53;14.70;99.90
50947;DHT22;36955;47.416;7.716;2022-09-01T02:24:40;14.70;99.90
50947;DHT22;36955;47.416;7.716;2022-09-01T02:27:26;14.60;99.90
50947;DHT22;36955;47.416;7.716;2022-09-01T02:30:12;14.60;99.90
50947;DHT22;36955;47.416;7.716;2022-09-01T02:32:59;14.40;99.90
50947;DHT22;36955;47.416;7.716;2022-09-01T02:35:47;14.40;99.90
50947;DHT22;36955;47.416;7.716;2022-09-01T02:38:34;14.40;99.90
50947;DHT22;36955;47.416;7.716;2022-09-01T02:41:21;14.30;99.90
50947;DHT22;36955;47.416;7.716;2022-09-01T02:44:07;14.20;99.90
50947;DHT22;36955;47.416;7.716;2022-09-01T02:46:54;14.20;99.90
50947;DHT22;36955;47.416;7.716;2022-09-01T02:49:40;14.10;99.90
50947;DHT22;36955;47.416;7.716;2022-09-01T02:52:26;14.10;99.90
50947;DHT22;36955;47.416;7.716;2022-09-01T02:55:14;14.00;99.90
50947;DHT22;36955;47.416;7.716;2022-09-01T02:58:00;14.00;99.90
50947;DHT22;36955;47.416;7.716;2022-09-01T03:00:51;13.90;99.90
50947;DHT22;36955;47.416;7.716;2022-09-01T03:03:38;13.90;99.90
50947;DHT22;36955;47.416;7.716;2022-09-01T03:06:25;13.90;99.90
50947;DHT22;36955;47.416;7.716;2022-09-01T03:09:14;13.90;99.90
50947;DHT22;36955;47.416;7.716;2022-09-01T03:12:02;13.90;99.90
50947;DHT22;36955;47.416;7.716;2022-09-01T03:14:48;13.90;99.90
50947;DHT22;36955;47.416;7.716;2022-09-01T03:17:34;13.90;99.90
50947;DHT22;36955;47.416;7.716;2022-09-01T03:20:21;13.90;99.90
50947;DHT22;36955;47.416;7.716;2022-09-01T03:23:08;14.00;99.90
50947;DHT22;36955;47.416;7.716;2022-09-01T03:25:55;14.00;99.90
50947;DHT22;36955;47.416;7.716;2022-09-01T03:28:41;13.90;99.90
50947;DHT22;36955;47.416;7.716;2022-09-01T03:31:28;13.90;99.90
50947;DHT22;36955;47.416;7.716;2022-09-01T03:34:15;13.90;99.90
50947;DHT22;36955;47.416;7.716;2022-09-01T03:37:01;13.80;99.90
50947;DHT22;36955;47.416;7.716;2022-09-01T03:39:47;13.80;99.90
50947;DHT22;36955;47.416;7.716;2022-09-01T03:42:35;13.80;99.90
50947;DHT22;36955;47.416;7.716;2022-09-01T03:45:22;13.90;99.90
50947;DHT22;36955;47.416;7.716;2022-09-01T03:48:09;13.80;99.90
50947;DHT22;36955;47.416;7.716;2022-09-01T03:50:56;13.90;99.90
50947;DHT22;36955;47.416;7.716;2022-09-01T03:53:43;13.80;99.90
50947;DHT22;36955;47.416;7.716;2022-09-01T03:56:29;13.80;99.90
50947;DHT22;36955;47.416;7.716;2022-09-01T03:59:16;13.80;99.90
50947;DHT22;36955;47.416;7.716;2022-09-01T04:02:02;13.80;99.90
50947;DHT22;36955;47.416;7.716;2022-09-01T04:04:49;13.80;99.90
50947;DHT22;36955;47.416;7.716;2022-09-01T04:07:35;13.70;99.90
50947;DHT22;36955;47.416;7.716;2022-09-01T04:10:22;13.60;99.90
50947;DHT22;36955;47.416;7.716;2022-09-01T04:13:09;13.50;99.90
50947;DHT22;36955;47.416;7.716;2022-09-01T04:15:57;13.50;99.90
50947;DHT22;36955;47.416;7.716;2022-09-01T04:18:43;13.50;99.90
50947;DHT22;36955;47.416;7.716;2022-09-01T04:21:29;13.50;99.90
50947;DHT22;36955;47.416;7.716;2022-09-01T04:24:16;13.50;99.90
50947;DHT22;36955;47.416;7.716;2022-09-01T04:27:03;13.50;99.90
50947;DHT22;36955;47.416;7.716;2022-09-01T04:29:49;13.50;99.90
50947;DHT22;36955;47.416;7.716;2022-09-01T04:32:36;13.40;99.90
50947;DHT22;36955;47.416;7.716;2022-09-01T04:35:23;13.40;99.90
50947;DHT22;36955;47.416;7.716;2022-09-01T04:38:09;13.40;99.90
50947;DHT22;36955;47.416;7.716;2022-09-01T04:40:56;13.40;99.90
50947;DHT22;36955;47.416;7.716;2022-09-01T04:43:46;13.40;99.90
50947;DHT22;36955;47.416;7.716;2022-09-01T04:46:36;13.40;99.90
50947;DHT22;36955;47.416;7.716;2022-09-01T04:49:23;13.50;99.90
50947;DHT22;36955;47.416;7.716;2022-09-01T04:52:10;13.40;99.90
50947;DHT22;36955;47.416;7.716;2022-09-01T04:54:56;13.40;99.90
50947;DHT22;36955;47.416;7.716;2022-09-01T04:57:45;13.40;99.90
50947;DHT22;36955;47.416;7.716;2022-09-01T05:00:31;13.30;99.90
50947;DHT22;36955;47.416;7.716;2022-09-01T05:03:18;13.30;99.90
50947;DHT22;36955;47.416;7.716;2022-09-01T05:06:12;13.30;99.90
50947;DHT22;36955;47.416;7.716;2022-09-01T05:08:59;13.20;99.90
50947;DHT22;36955;47.416;7.716;2022-09-01T05:11:45;13.30;99.90
50947;DHT22;36955;47.416;7.716;2022-09-01T05:14:32;13.30;99.90
50947;DHT22;36955;47.416;7.716;2022-09-01T05:17:18;13.30;99.90
50947;DHT22;36955;47.416;7.716;2022-09-01T05:20:06;13.30;99.90
50947;DHT22;36955;47.416;7.716;2022-09-01T05:22:52;13.30;99.90
50947;DHT22;36955;47.416;7.716;2022-09-01T05:25:41;13.40;99.90
50947;DHT22;36955;47.416;7.716;2022-09-01T05:28:27;13.40;99.90
50947;DHT22;36955;47.416;7.716;2022-09-01T05:31:15;13.50;99.90
50947;DHT22;36955;47.416;7.716;2022-09-01T05:34:01;13.50;99.90
50947;DHT22;36955;47.416;7.716;2022-09-01T05:36:47;13.50;99.90
50947;DHT22;36955;47.416;7.716;2022-09-01T05:39:36;13.50;99.90
50947;DHT22;36955;47.416;7.716;2022-09-01T05:42:22;13.50;99.90
50947;DHT22;36955;47.416;7.716;2022-09-01T05:45:09;13.60;99.90
50947;DHT22;36955;47.416;7.716;2022-09-01T05:47:55;13.70;99.90
50947;DHT22;36955;47.416;7.716;2022-09-01T05:50:41;13.60;99.90
50947;DHT22;36955;47.416;7.716;2022-09-01T05:53:27;13.70;99.90
50947;DHT22;36955;47.416;7.716;2022-09-01T05:56:14;13.70;99.90
50947;DHT22;36955;47.416;7.716;2022-09-01T05:59:00;13.80;99.90
50947;DHT22;36955;47.416;7.716;2022-09-01T06:01:47;13.80;99.90
50947;DHT22;36955;47.416;7.716;2022-09-01T06:04:33;13.80;99.90
50947;DHT22;36955;47.416;7.716;2022-09-01T06:07:20;13.80;99.90
50947;DHT22;36955;47.416;7.716;2022-09-01T06:10:07;13.90;99.90
50947;DHT22;36955;47.416;7.716;2022-09-01T06:12:53;13.90;99.90
50947;DHT22;36955;47.416;7.716;2022-09-01T06:15:40;13.90;99.90
50947;DHT22;36955;47.416;7.716;2022-09-01T06:18:26;14.00;99.90
50947;DHT22;36955;47.416;7.716;2022-09-01T06:21:13;14.00;99.90
50947;DHT22;36955;47.416;7.716;2022-09-01T06:23:59;14.00;99.90
50947;DHT22;36955;47.416;7.716;2022-09-01T06:26:46;14.00;99.90
50947;DHT22;36955;47.416;7.716;2022-09-01T06:29:32;14.00;99.90
50947;DHT22;36955;47.416;7.716;2022-09-01T06:32:18;14.10;99.90
50947;DHT22;36955;47.416;7.716;2022-09-01T06:35:05;14.10;99.90
50947;DHT22;36955;47.416;7.716;2022-09-01T06:37:51;14.20;99.90
50947;DHT22;36955;47.416;7.716;2022-09-01T06:40:38;14.20;99.90
50947;DHT22;36955;47.416;7.716;2022-09-01T06:43:25;14.20;99.90
50947;DHT22;36955;47.416;7.716;2022-09-01T06:46:11;14.20;99.90
50947;DHT22;36955;47.416;7.716;2022-09-01T06:48:57;14.20;99.90
50947;DHT22;36955;47.416;7.716;2022-09-01T06:51:44;14.30;99.90
50947;DHT22;36955;47.416;7.716;2022-09-01T06:54:31;14.30;99.90
50947;DHT22;36955;47.416;7.716;2022-09-01T06:57:17;14.30;99.90
50947;DHT22;36955;47.416;7.716;2022-09-01T07:00:06;14.40;99.90
50947;DHT22;36955;47.416;7.716;2022-09-01T07:02:54;14.40;99.90
50947;DHT22;36955;47.416;7.716;2022-09-01T07:05:44;14.50;99.90
50947;DHT22;36955;47.416;7.716;2022-09-01T07:08:30;14.50;99.90
50947;DHT22;36955;47.416;7.716;2022-09-01T07:11:24;14.40;99.90
50947;DHT22;36955;47.416;7.716;2022-09-01T07:14:10;14.50;99.90
50947;DHT22;36955;47.416;7.716;2022-09-01T07:16:56;14.50;99.90
50947;DHT22;36955;47.416;7.716;2022-09-01T07:19:43;14.60;99.90
50947;DHT22;36955;47.416;7.716;2022-09-01T07:22:29;14.70;99.90
50947;DHT22;36955;47.416;7.716;2022-09-01T07:25:16;14.80;99.90
50947;DHT22;36955;47.416;7.716;2022-09-01T07:28:04;14.90;99.90
50947;DHT22;36955;47.416;7.716;2022-09-01T07:30:51;14.90;99.90
50947;DHT22;36955;47.416;7.716;2022-09-01T07:33:37;14.90;99.90
50947;DHT22;36955;47.416;7.716;2022-09-01T07:36:24;14.90;99.90
50947;DHT22;36955;47.416;7.716;2022-09-01T07:39:11;14.90;99.90
50947;DHT22;36955;47.416;7.716;2022-09-01T07:41:58;14.90;99.90
50947;DHT22;36955;47.416;7.716;2022-09-01T07:44:44;14.80;99.90
50947;DHT22;36955;47.416;7.716;2022-09-01T07:47:30;14.90;99.90
50947;DHT22;36955;47.416;7.716;2022-09-01T07:50:17;14.90;99.90
50947;DHT22;36955;47.416;7.716;2022-09-01T07:53:03;14.90;99.90
50947;DHT22;36955;47.416;7.716;2022-09-01T07:55:52;15.00;99.90
50947;DHT22;36955;47.416;7.716;2022-09-01T07:58:39;15.00;99.90
50947;DHT22;36955;47.416;7.716;2022-09-01T08:01:27;15.20;99.90
50947;DHT22;36955;47.416;7.716;2022-09-01T08:04:13;15.20;99.90
50947;DHT22;36955;47.416;7.716;2022-09-01T08:06:59;15.20;99.90
50947;DHT22;36955;47.416;7.716;2022-09-01T08:09:46;15.20;99.90
50947;DHT22;36955;47.416;7.716;2022-09-01T08:12:33;15.20;99.90
50947;DHT22;36955;47.416;7.716;2022-09-01T08:15:19;15.30;99.90
50947;DHT22;36955;47.416;7.716;2022-09-01T08:18:06;15.40;99.90
50947;DHT22;36955;47.416;7.716;2022-09-01T08:20:52;15.50;99.90
50947;DHT22;36955;47.416;7.716;2022-09-01T08:23:40;15.50;99.90
50947;DHT22;36955;47.416;7.716;2022-09-01T08:26:26;15.60;99.90
50947;DHT22;36955;47.416;7.716;2022-09-01T08:29:12;15.70;99.90
50947;DHT22;36955;47.416;7.716;2022-09-01T08:31:59;15.80;99.90
50947;DHT22;36955;47.416;7.716;2022-09-01T08:34:45;15.90;99.90
50947;DHT22;36955;47.416;7.716;2022-09-01T08:37:31;15.90;99.90
50947;DHT22;36955;47.416;7.716;2022-09-01T08:40:19;16.00;99.90
50947;DHT22;36955;47.416;7.716;2022-09-01T08:43:26;16.10;99.90
50947;DHT22;36955;47.416;7.716;2022-09-01T08:46:31;16.20;99.90
50947;DHT22;36955;47.416;7.716;2022-09-01T08:49:21;16.00;99.90
50947;DHT22;36955;47.416;7.716;2022-09-01T08:52:23;16.10;99.90
50947;DHT22;36955;47.416;7.716;2022-09-01T08:55:25;16.20;99.90
50947;DHT22;36955;47.416;7.716;2022-09-01T08:58:16;16.30;99.90
50947;DHT22;36955;47.416;7.716;2022-09-01T09:01:15;16.30;99.90
50947;DHT22;36955;47.416;7.716;2022-09-01T09:04:12;16.30;99.90
50947;DHT22;36955;47.416;7.716;2022-09-01T09:07:11;16.30;99.90
50947;DHT22;36955;47.416;7.716;2022-09-01T09:10:05;16.50;99.90
50947;DHT22;36955;47.416;7.716;2022-09-01T09:13:11;16.60;99.90
50947;DHT22;36955;47.416;7.716;2022-09-01T09:16:14;16.60;99.90
50947;DHT22;36955;47.416;7.716;2022-09-01T09:19:12;16.70;99.90
50947;DHT22;36955;47.416;7.716;2022-09-01T09:22:05;16.70;99.90
50947;DHT22;36955;47.416;7.716;2022-09-01T09:27:47;16.50;99.90
50947;DHT22;36955;47.416;7.716;2022-09-01T09:30:34;16.60;99.90
50947;DHT22;36955;47.416;7.716;2022-09-01T09:33:36;16.70;99.90
50947;DHT22;36955;47.416;7.716;2022-09-01T09:36:30;16.80;99.90
50947;DHT22;36955;47.416;7.716;2022-09-01T09:39:17;16.90;99.90
50947;DHT22;36955;47.416;7.716;2022-09-01T09:42:10;17.20;99.90
50947;DHT22;36955;47.416;7.716;2022-09-01T09:44:57;17.30;99.90
50947;DHT22;36955;47.416;7.716;2022-09-01T09:47:44;17.40;99.90
50947;DHT22;36955;47.416;7.716;2022-09-01T09:50:39;17.30;99.90
50947;DHT22;36955;47.416;7.716;2022-09-01T09:53:28;17.40;99.90
50947;DHT22;36955;47.416;7.716;2022-09-01T09:56:19;17.40;99.90
50947;DHT22;36955;47.416;7.716;2022-09-01T10:02:36;17.50;99.90
50947;DHT22;36955;47.416;7.716;2022-09-01T10:11:43;17.50;99.90
50947;DHT22;36955;47.416;7.716;2022-09-01T10:14:44;17.60;99.90
50947;DHT22;36955;47.416;7.716;2022-09-01T10:17:35;17.70;99.90
50947;DHT22;36955;47.416;7.716;2022-09-01T10:20:25;17.80;99.90
50947;DHT22;36955;47.416;7.716;2022-09-01T10:23:11;18.00;99.90
50947;DHT22;36955;47.416;7.716;2022-09-01T10:26:02;18.00;99.90
50947;DHT22;36955;47.416;7.716;2022-09-01T10:31:40;17.70;99.90
50947;DHT22;36955;47.416;7.716;2022-09-01T10:34:31;17.70;99.90
50947;DHT22;36955;47.416;7.716;2022-09-01T10:37:18;17.70;99.90
50947;DHT22;36955;47.416;7.716;2022-09-01T10:43:42;18.00;99.90
50947;DHT22;36955;47.416;7.716;2022-09-01T10:55:38;18.50;99.90
50947;DHT22;36955;47.416;7.716;2022-09-01T11:10:36;18.70;99.90
50947;DHT22;36955;47.416;7.716;2022-09-01T11:16:29;18.80;99.90
50947;DHT22;36955;47.416;7.716;2022-09-01T11:34:13;18.60;99.90
50947;DHT22;36955;47.416;7.716;2022-09-01T11:37:00;18.70;99.90
50947;DHT22;36955;47.416;7.716;2022-09-01T11:39:49;18.70;99.90
50947;DHT22;36955;47.416;7.716;2022-09-01T11:42:41;18.80;99.90
50947;DHT22;36955;47.416;7.716;2022-09-01T11:45:30;18.90;99.90
50947;DHT22;36955;47.416;7.716;2022-09-01T11:48:17;19.00;99.90
50947;DHT22;36955;47.416;7.716;2022-09-01T11:51:04;19.00;99.90
50947;DHT22;36955;47.416;7.716;2022-09-01T11:53:51;19.10;99.90
50947;DHT22;36955;47.416;7.716;2022-09-01T11:56:37;19.10;99.90
50947;DHT22;36955;47.416;7.716;2022-09-01T11:59:36;19.20;99.90
50947;DHT22;36955;47.416;7.716;2022-09-01T12:02:31;19.20;99.90
50947;DHT22;36955;47.416;7.716;2022-09-01T12:08:17;19.40;99.90
50947;DHT22;36955;47.416;7.716;2022-09-01T12:11:17;19.50;99.90
50947;DHT22;36955;47.416;7.716;2022-09-01T12:14:07;19.50;99.90
50947;DHT22;36955;47.416;7.716;2022-09-01T12:17:03;19.50;99.90
50947;DHT22;36955;47.416;7.716;2022-09-01T12:19:50;19.70;99.90
50947;DHT22;36955;47.416;7.716;2022-09-01T12:22:36;19.70;99.90
50947;DHT22;36955;47.416;7.716;2022-09-01T12:25:26;19.90;99.90
50947;DHT22;36955;47.416;7.716;2022-09-01T12:28:12;20.00;99.90
50947;DHT22;36955;47.416;7.716;2022-09-01T12:31:01;19.90;99.90
50947;DHT22;36955;47.416;7.716;2022-09-01T12:33:48;20.00;99.90
50947;DHT22;36955;47.416;7.716;2022-09-01T12:36:36;19.70;99.90
50947;DHT22;36955;47.416;7.716;2022-09-01T12:39:23;19.60;99.90
50947;DHT22;36955;47.416;7.716;2022-09-01T12:45:06;19.70;99.90
50947;DHT22;36955;47.416;7.716;2022-09-01T12:47:53;19.70;99.90
50947;DHT22;36955;47.416;7.716;2022-09-01T12:50:44;19.90;99.90
50947;DHT22;36955;47.416;7.716;2022-09-01T12:53:32;20.10;99.90
50947;DHT22;36955;47.416;7.716;2022-09-01T12:59:21;20.40;99.90
50947;DHT22;36955;47.416;7.716;2022-09-01T13:02:35;20.50;99.90
50947;DHT22;36955;47.416;7.716;2022-09-01T13:08:10;20.20;99.90
50947;DHT22;36955;47.416;7.716;2022-09-01T13:11:13;20.40;99.90
50947;DHT22;36955;47.416;7.716;2022-09-01T13:13:59;20.40;99.90
50947;DHT22;36955;47.416;7.716;2022-09-01T13:16:46;20.40;99.90
50947;DHT22;36955;47.416;7.716;2022-09-01T13:19:32;20.40;99.90
50947;DHT22;36955;47.416;7.716;2022-09-01T13:22:18;20.00;99.90
50947;DHT22;36955;47.416;7.716;2022-09-01T13:25:05;19.90;99.90
50947;DHT22;36955;47.416;7.716;2022-09-01T13:27:51;19.90;99.90
50947;DHT22;36955;47.416;7.716;2022-09-01T13:30:38;20.10;99.90
50947;DHT22;36955;47.416;7.716;2022-09-01T13:33:27;20.20;99.90
50947;DHT22;36955;47.416;7.716;2022-09-01T13:36:14;20.40;99.90
50947;DHT22;36955;47.416;7.716;2022-09-01T13:39:00;20.70;99.90
50947;DHT22;36955;47.416;7.716;2022-09-01T13:41:47;20.80;99.90
50947;DHT22;36955;47.416;7.716;2022-09-01T13:44:33;20.90;99.90
50947;DHT22;36955;47.416;7.716;2022-09-01T13:47:20;21.10;99.90
50947;DHT22;36955;47.416;7.716;2022-09-01T13:50:07;21.30;99.90
50947;DHT22;36955;47.416;7.716;2022-09-01T13:52:55;21.50;99.90
50947;DHT22;36955;47.416;7.716;2022-09-01T13:55:42;21.80;99.90
50947;DHT22;36955;47.416;7.716;2022-09-01T13:58:29;21.90;99.90
50947;DHT22;36955;47.416;7.716;2022-09-01T14:01:15;22.00;99.90
50947;DHT22;36955;47.416;7.716;2022-09-01T14:04:01;21.90;99.90
50947;DHT22;36955;47.416;7.716;2022-09-01T14:06:48;21.70;99.90
50947;DHT22;36955;47.416;7.716;2022-09-01T14:09:34;21.70;99.90
50947;DHT22;36955;47.416;7.716;2022-09-01T14:12:21;21.90;99.90
50947;DHT22;36955;47.416;7.716;2022-09-01T14:15:08;22.00;99.90
50947;DHT22;36955;47.416;7.716;2022-09-01T14:17:56;22.40;99.90
50947;DHT22;36955;47.416;7.716;2022-09-01T14:20:45;22.30;99.90
50947;DHT22;36955;47.416;7.716;2022-09-01T14:23:32;22.20;99.90
50947;DHT22;36955;47.416;7.716;2022-09-01T14:26:18;22.10;99.90
50947;DHT22;36955;47.416;7.716;2022-09-01T14:29:05;22.20;99.90
50947;DHT22;36955;47.416;7.716;2022-09-01T14:31:51;22.20;99.90
50947;DHT22;36955;47.416;7.716;2022-09-01T14:34:37;22.20;99.90
50947;DHT22;36955;47.416;7.716;2022-09-01T14:37:24;22.30;99.90
50947;DHT22;36955;47.416;7.716;2022-09-01T14:40:13;22.60;99.90
50947;DHT22;36955;47.416;7.716;2022-09-01T14:42:59;22.70;99.90
50947;DHT22;36955;47.416;7.716;2022-09-01T14:45:45;22.80;99.90
50947;DHT22;36955;47.416;7.716;2022-09-01T14:48:33;22.90;99.90
50947;DHT22;36955;47.416;7.716;2022-09-01T14:51:25;22.90;99.90
50947;DHT22;36955;47.416;7.716;2022-09-01T14:54:12;22.90;99.90
50947;DHT22;36955;47.416;7.716;2022-09-01T14:56:58;22.80;99.90
50947;DHT22;36955;47.416;7.716;2022-09-01T14:59:45;22.60;99.90
50947;DHT22;36955;47.416;7.716;2022-09-01T15:02:31;22.80;99.90
50947;DHT22;36955;47.416;7.716;2022-09-01T15:05:17;22.90;99.90
50947;DHT22;36955;47.416;7.716;2022-09-01T15:08:04;22.90;99.90
50947;DHT22;36955;47.416;7.716;2022-09-01T15:10:50;22.90;99.90
50947;DHT22;36955;47.416;7.716;2022-09-01T15:13:38;22.90;99.90
50947;DHT22;36955;47.416;7.716;2022-09-01T15:16:25;22.80;99.90
50947;DHT22;36955;47.416;7.716;2022-09-01T15:19:12;22.70;99.90
50947;DHT22;36955;47.416;7.716;2022-09-01T15:21:59;22.70;99.90
50947;DHT22;36955;47.416;7.716;2022-09-01T15:24:46;22.90;99.90
50947;DHT22;36955;47.416;7.716;2022-09-01T15:27:32;22.90;99.90
50947;DHT22;36955;47.416;7.716;2022-09-01T15:30:19;22.90;99.90
50947;DHT22;36955;47.416;7.716;2022-09-01T15:33:06;23.00;99.90
50947;DHT22;36955;47.416;7.716;2022-09-01T15:35:53;22.70;99.90
50947;DHT22;36955;47.416;7.716;2022-09-01T15:38:39;22.30;99.90
50947;DHT22;36955;47.416;7.716;2022-09-01T15:41:29;22.20;99.90
50947;DHT22;36955;47.416;7.716;2022-09-01T15:44:15;22.20;99.90
50947;DHT22;36955;47.416;7.716;2022-09-01T15:47:02;22.30;99.90
50947;DHT22;36955;47.416;7.716;2022-09-01T15:49:48;22.30;99.90
50947;DHT22;36955;47.416;7.716;2022-09-01T15:55:40;22.30;99.90
50947;DHT22;36955;47.416;7.716;2022-09-01T15:58:26;22.40;99.90
50947;DHT22;36955;47.416;7.716;2022-09-01T16:01:14;22.60;99.90
50947;DHT22;36955;47.416;7.716;2022-09-01T16:04:01;22.70;99.90
50947;DHT22;36955;47.416;7.716;2022-09-01T16:06:48;22.50;99.90
50947;DHT22;36955;47.416;7.716;2022-09-01T16:09:35;22.60;99.90
50947;DHT22;36955;47.416;7.716;2022-09-01T16:12:21;22.40;99.90
50947;DHT22;36955;47.416;7.716;2022-09-01T16:15:11;22.40;99.90
50947;DHT22;36955;47.416;7.716;2022-09-01T16:22:01;22.10;99.90
50947;DHT22;36955;47.416;7.716;2022-09-01T16:24:27;22.20;99.90
50947;DHT22;36955;47.416;7.716;2022-09-01T16:27:17;22.20;99.90
50947;DHT22;36955;47.416;7.716;2022-09-01T16:30:10;22.10;99.90
50947;DHT22;36955;47.416;7.716;2022-09-01T16:32:58;22.00;99.90
50947;DHT22;36955;47.416;7.716;2022-09-01T16:35:58;22.00;99.90
50947;DHT22;36955;47.416;7.716;2022-09-01T16:39:15;22.10;99.90
50947;DHT22;36955;47.416;7.716;2022-09-01T16:42:24;22.00;99.90
50947;DHT22;36955;47.416;7.716;2022-09-01T16:52:03;21.00;99.90
50947;DHT22;36955;47.416;7.716;2022-09-01T16:55:14;20.70;99.90
50947;DHT22;36955;47.416;7.716;2022-09-01T16:58:24;20.50;99.90
50947;DHT22;36955;47.416;7.716;2022-09-01T17:04:57;20.10;99.90
50947;DHT22;36955;47.416;7.716;2022-09-01T17:13:50;19.70;99.90
50947;DHT22;36955;47.416;7.716;2022-09-01T17:16:43;19.70;99.90
50947;DHT22;36955;47.416;7.716;2022-09-01T17:19:30;19.60;99.90
50947;DHT22;36955;47.416;7.716;2022-09-01T17:22:18;19.60;99.90
50947;DHT22;36955;47.416;7.716;2022-09-01T17:25:09;19.50;99.90
50947;DHT22;36955;47.416;7.716;2022-09-01T17:28:18;19.50;99.90
50947;DHT22;36955;47.416;7.716;2022-09-01T17:31:14;19.30;99.90
50947;DHT22;36955;47.416;7.716;2022-09-01T17:34:23;19.30;99.90
50947;DHT22;36955;47.416;7.716;2022-09-01T17:37:26;19.20;99.90
50947;DHT22;36955;47.416;7.716;2022-09-01T17:40:48;19.20;99.90
50947;DHT22;36955;47.416;7.716;2022-09-01T17:46:47;19.00;99.90
50947;DHT22;36955;47.416;7.716;2022-09-01T17:49:50;19.00;99.90
50947;DHT22;36955;47.416;7.716;2022-09-01T17:52:48;18.90;99.90
50947;DHT22;36955;47.416;7.716;2022-09-01T17:56:04;18.90;99.90
50947;DHT22;36955;47.416;7.716;2022-09-01T18:05:15;18.70;99.90
50947;DHT22;36955;47.416;7.716;2022-09-01T18:08:19;18.60;99.90
50947;DHT22;36955;47.416;7.716;2022-09-01T18:11:17;18.50;99.90
50947;DHT22;36955;47.416;7.716;2022-09-01T18:14:15;18.50;99.90
50947;DHT22;36955;47.416;7.716;2022-09-01T18:17:30;18.50;99.90
50947;DHT22;36955;47.416;7.716;2022-09-01T18:20:22;18.50;99.90
50947;DHT22;36955;47.416;7.716;2022-09-01T18:23:11;18.40;99.90
50947;DHT22;36955;47.416;7.716;2022-09-01T18:26:07;18.40;99.90
50947;DHT22;36955;47.416;7.716;2022-09-01T18:28:55;18.30;99.90
50947;DHT22;36955;47.416;7.716;2022-09-01T18:32:02;18.20;99.90
50947;DHT22;36955;47.416;7.716;2022-09-01T18:38:18;18.20;99.90
50947;DHT22;36955;47.416;7.716;2022-09-01T19:01:15;17.50;99.90
50947;DHT22;36955;47.416;7.716;2022-09-01T19:04:32;17.40;99.90
50947;DHT22;36955;47.416;7.716;2022-09-01T19:14:44;17.30;99.90
50947;DHT22;36955;47.416;7.716;2022-09-01T19:20:54;17.20;99.90
50947;DHT22;36955;47.416;7.716;2022-09-01T19:23:58;17.20;99.90
50947;DHT22;36955;47.416;7.716;2022-09-01T21:30:15;16.10;99.90
50947;DHT22;36955;47.416;7.716;2022-09-01T21:32:41;16.10;99.90
50947;DHT22;36955;47.416;7.716;2022-09-01T21:35:13;16.10;99.90
50947;DHT22;36955;47.416;7.716;2022-09-01T21:37:39;16.00;99.90
50947;DHT22;36955;47.416;7.716;2022-09-01T21:40:06;16.00;99.90
50947;DHT22;36955;47.416;7.716;2022-09-01T21:42:38;16.00;99.90
50947;DHT22;36955;47.416;7.716;2022-09-01T21:45:06;16.10;99.90
50947;DHT22;36955;47.416;7.716;2022-09-01T21:47:33;16.10;99.90
50947;DHT22;36955;47.416;7.716;2022-09-01T21:49:59;16.10;99.90
50947;DHT22;36955;47.416;7.716;2022-09-01T21:52:25;16.10;99.90
50947;DHT22;36955;47.416;7.716;2022-09-01T21:54:51;16.00;99.90
50947;DHT22;36955;47.416;7.716;2022-09-01T21:57:17;15.90;99.90
50947;DHT22;36955;47.416;7.716;2022-09-01T21:59:43;15.90;99.90
50947;DHT22;36955;47.416;7.716;2022-09-01T22:02:09;15.80;99.90
50947;DHT22;36955;47.416;7.716;2022-09-01T22:04:36;15.70;99.90
50947;DHT22;36955;47.416;7.716;2022-09-01T22:07:04;15.60;99.90